Terminal Aerodrome Forecast
Issued by NWS

Home | Current Version | Previous Version | Text Only | Print | Product List | Glossary On
Versions: 1 2 3 4 5 6 7 8 9 10 11 12 13 14 15 16 17 18 19 20
000
FTUS46 KSTO 201227 AAA
TAFSMF
TAF AMD
KSMF 201227Z 2012/2112 15024G35KT P6SM -RA SCT015 OVC040
      TEMPO 2013/2014 2SM +TSRA OVC015CB
     FM201500 19017G25KT P6SM -SHRA BKN030
     FM210200 19015KT P6SM -SHRA BKN050=

USA.gov is the U.S. government's official web portal to all federal, state and local government web resources and services.